Capitol Logistics 7342

Operating for MZN



KBWI
Baltimore/Washington International Thurgood Marshall Airport
Baltimore, Maryland
KAUS
Austin-Bergstrom International Airport
Austin, Texas

Activity Log

Date Flight Route Aircraft Duration
No Flights Yet

Route Details

Aircraft Information
Primary: Boeing 737-800BCF
Backup: Boeing 757-200SF
Route Data
Distance: 1166nm
Duration: 3h 35m
Recm'd Route: TERPZ7 OTTTO Q80 FAREV BWG LIT LFK IDU WAILN WLEEE5
Origin Wx: KBWI 180054Z 32003KT 10SM FEW140 SCT200 12/03 A2985 RMK AO2 SLP107 T01220028
Dest. Wx: KAUS 180053Z 02013KT 10SM BKN110 BKN250 13/06 A3008 RMK AO2 SLP185 T01330061
Notes: